createdAt,value
2019-03-06T00:00:39.494Z,14.10
2019-03-06T00:03:07.991Z,16.60
2019-03-06T00:05:36.730Z,13.77
2019-03-06T00:08:05.564Z,12.20
2019-03-06T00:10:34.193Z,13.23
2019-03-06T00:13:02.658Z,12.73
2019-03-06T00:15:31.151Z,11.77
2019-03-06T00:17:59.639Z,13.83
2019-03-06T00:20:28.111Z,13.17
2019-03-06T00:22:56.590Z,12.13
2019-03-06T00:25:25.076Z,13.10
2019-03-06T00:27:53.556Z,15.30
2019-03-06T00:30:22.022Z,12.50
2019-03-06T00:32:50.527Z,13.37
2019-03-06T00:35:39.009Z,12.73
2019-03-06T00:38:07.494Z,15.03
2019-03-06T00:40:46.620Z,12.70
2019-03-06T00:43:15.117Z,12.50
2019-03-06T00:45:43.581Z,14.10
2019-03-06T00:48:12.135Z,13.00
2019-03-06T00:50:40.633Z,12.43
2019-03-06T00:53:09.128Z,13.20
2019-03-06T00:55:37.595Z,13.80
2019-03-06T00:58:06.062Z,13.37
2019-03-06T01:00:34.523Z,13.50
2019-03-06T01:03:03.092Z,12.73
2019-03-06T01:05:31.548Z,11.83
2019-03-06T01:08:00.040Z,11.33
2019-03-06T01:10:28.578Z,12.03
2019-03-06T01:12:57.064Z,10.60
2019-03-06T01:15:25.526Z,12.30
2019-03-06T01:17:54.009Z,11.30
2019-03-06T01:20:22.746Z,16.27
2019-03-06T01:22:51.215Z,12.50
2019-03-06T01:25:20.928Z,12.57
2019-03-06T01:27:49.406Z,15.77
2019-03-06T01:30:21.852Z,14.10
2019-03-06T01:33:01.078Z,14.57
2019-03-06T01:35:34.204Z,14.83
2019-03-06T01:38:20.516Z,16.83
2019-03-06T01:40:50.637Z,12.13
2019-03-06T01:43:20.764Z,13.70
2019-03-06T01:45:49.247Z,17.17
2019-03-06T01:48:17.739Z,13.33
2019-03-06T01:50:46.199Z,13.10
2019-03-06T01:53:14.674Z,14.03
2019-03-06T01:55:43.225Z,12.83
2019-03-06T01:58:11.697Z,14.17
2019-03-06T02:00:40.525Z,14.03
2019-03-06T02:03:08.985Z,13.30
2019-03-06T02:05:37.458Z,13.23
2019-03-06T02:08:06.357Z,14.37
2019-03-06T02:10:34.854Z,14.27
2019-03-06T02:13:04.073Z,14.53
2019-03-06T02:15:32.564Z,19.00
2019-03-06T02:18:01.024Z,13.03
2019-03-06T02:20:29.504Z,13.70
2019-03-06T02:22:58.039Z,16.10
2019-03-06T02:25:26.810Z,14.97
2019-03-06T02:27:55.283Z,17.17
2019-03-06T02:30:25.210Z,14.40
2019-03-06T02:32:53.677Z,15.23
2019-03-06T02:35:22.173Z,18.70
2019-03-06T02:37:50.652Z,16.57
2019-03-06T02:40:19.137Z,18.13
2019-03-06T02:42:47.615Z,16.27
2019-03-06T02:45:22.384Z,17.20
2019-03-06T02:47:50.857Z,18.97
2019-03-06T02:50:19.888Z,14.77
2019-03-06T02:52:48.341Z,18.03
2019-03-06T02:55:18.265Z,16.63
2019-03-06T02:57:57.188Z,14.80
2019-03-06T03:00:34.789Z,16.73
2019-03-06T03:03:08.688Z,18.40
2019-03-06T03:05:38.813Z,16.37
2019-03-06T03:08:07.351Z,16.73
2019-03-06T03:10:35.835Z,16.10
2019-03-06T03:13:04.449Z,20.23
2019-03-06T03:15:32.923Z,17.50
2019-03-06T03:18:01.412Z,15.07
2019-03-06T03:20:29.900Z,17.63
2019-03-06T03:22:58.349Z,17.70
2019-03-06T03:25:27.105Z,16.63
2019-03-06T03:27:55.588Z,16.70
2019-03-06T03:30:24.109Z,16.40
2019-03-06T03:32:52.618Z,21.17
2019-03-06T03:35:21.105Z,16.27
2019-03-06T03:37:49.590Z,17.13
2019-03-06T03:40:18.097Z,16.33
2019-03-06T03:42:46.583Z,18.60
2019-03-06T03:45:16.493Z,19.67
2019-03-06T03:47:44.945Z,16.43
2019-03-06T03:50:13.575Z,16.47
2019-03-06T03:52:42.323Z,20.97
2019-03-06T03:55:13.593Z,17.30
2019-03-06T03:57:42.039Z,19.37
2019-03-06T04:00:18.957Z,17.23
2019-03-06T04:02:47.864Z,17.67
2019-03-06T04:05:16.493Z,16.60
2019-03-06T04:07:44.961Z,16.87
2019-03-06T04:10:14.991Z,18.70
2019-03-06T04:12:43.588Z,18.87
2019-03-06T04:15:17.041Z,17.03
2019-03-06T04:17:45.514Z,17.63
2019-03-06T04:20:18.240Z,18.17
2019-03-06T04:22:46.692Z,19.17
2019-03-06T04:25:15.259Z,18.37
2019-03-06T04:27:43.733Z,16.33
2019-03-06T04:30:14.624Z,17.13
2019-03-06T04:32:43.151Z,17.93
2019-03-06T04:35:11.934Z,18.53
2019-03-06T04:37:40.395Z,17.40
2019-03-06T04:40:11.491Z,15.63
2019-03-06T04:42:39.964Z,19.67
2019-03-06T04:45:12.980Z,16.17
2019-03-06T04:47:41.442Z,15.70
2019-03-06T04:50:15.030Z,15.87
2019-03-06T04:52:43.847Z,19.27
2019-03-06T04:55:14.491Z,18.70
2019-03-06T04:57:42.964Z,16.63
2019-03-06T05:00:15.857Z,19.17
2019-03-06T05:02:44.336Z,15.60
2019-03-06T05:05:12.821Z,19.40
2019-03-06T05:07:41.289Z,19.33
2019-03-06T05:10:11.215Z,15.10
2019-03-06T05:12:39.700Z,15.57
2019-03-06T05:15:11.121Z,20.73
2019-03-06T05:17:41.261Z,17.73
2019-03-06T05:20:09.852Z,18.13
2019-03-06T05:22:38.335Z,19.30
2019-03-06T05:25:07.173Z,18.90
2019-03-06T05:27:35.645Z,17.80
2019-03-06T05:30:05.837Z,18.33
2019-03-06T05:32:36.113Z,20.23
2019-03-06T05:35:07.581Z,20.87
2019-03-06T05:38:00.765Z,24.07
2019-03-06T05:40:29.248Z,18.33
2019-03-06T05:42:57.722Z,21.93
2019-03-06T05:45:26.211Z,21.10
2019-03-06T05:47:54.677Z,25.43
2019-03-06T05:50:23.174Z,20.90
2019-03-06T05:52:51.644Z,22.77
2019-03-06T05:55:20.105Z,22.80
2019-03-06T05:57:48.687Z,25.27
2019-03-06T06:00:21.472Z,21.87
2019-03-06T06:02:49.985Z,22.37
2019-03-06T06:05:18.457Z,20.40
2019-03-06T06:07:46.956Z,25.87
2019-03-06T06:10:16.194Z,22.83
2019-03-06T06:12:44.671Z,20.80
2019-03-06T06:15:14.772Z,21.67
2019-03-06T06:17:43.438Z,20.90
2019-03-06T06:20:14.414Z,19.03
2019-03-06T06:22:59.791Z,20.03
2019-03-06T06:25:29.917Z,19.50
2019-03-06T06:27:58.392Z,25.20
2019-03-06T06:30:26.874Z,17.80
2019-03-06T06:32:55.360Z,19.17
2019-03-06T06:35:24.204Z,18.90
2019-03-06T06:37:52.762Z,20.83
2019-03-06T06:40:21.274Z,21.60
2019-03-06T06:42:49.755Z,21.27
2019-03-06T06:45:18.402Z,22.30
2019-03-06T06:48:07.178Z,18.23
2019-03-06T06:50:36.221Z,19.60
2019-03-06T06:53:25.436Z,20.77
2019-03-06T06:56:02.768Z,21.97
2019-03-06T06:58:49.170Z,20.83
2019-03-06T07:01:37.491Z,19.00
2019-03-06T07:04:19.132Z,21.87
2019-03-06T07:06:51.940Z,19.30
2019-03-06T07:09:38.241Z,20.47
2019-03-06T07:12:17.312Z,19.57
2019-03-06T07:15:03.162Z,19.53
2019-03-06T07:17:33.273Z,15.87
2019-03-06T07:20:03.426Z,17.77
2019-03-06T07:25:31.822Z,16.37
2019-03-06T07:28:10.901Z,18.43
2019-03-06T07:30:41.009Z,20.20
2019-03-06T07:33:16.846Z,18.03
2019-03-06T07:36:00.256Z,16.07
2019-03-06T07:38:29.205Z,16.53
2019-03-06T07:41:17.352Z,18.37
2019-03-06T07:43:53.030Z,18.73
2019-03-06T07:46:26.220Z,16.63
2019-03-06T07:49:02.216Z,18.00
2019-03-06T07:51:41.277Z,12.87
2019-03-06T07:54:14.090Z,14.10
2019-03-06T07:56:45.938Z,13.30
2019-03-06T07:59:14.428Z,13.60
2019-03-06T08:01:52.488Z,15.53
2019-03-06T08:04:20.975Z,15.20
2019-03-06T08:07:00.074Z,11.53
2019-03-06T08:09:28.562Z,11.50
2019-03-06T08:11:58.668Z,12.13
2019-03-06T08:14:28.802Z,10.87
2019-03-06T08:16:58.910Z,10.70
2019-03-06T08:19:41.020Z,11.97
2019-03-06T08:22:11.390Z,11.27
2019-03-06T08:24:57.781Z,11.47
2019-03-06T08:27:26.429Z,11.30
2019-03-06T08:29:54.938Z,10.73
2019-03-06T08:32:25.042Z,10.70
2019-03-06T08:34:53.519Z,9.47
2019-03-06T08:37:21.988Z,11.53
2019-03-06T08:39:50.469Z,11.23
2019-03-06T08:42:18.935Z,9.80
2019-03-06T08:44:47.413Z,8.27
2019-03-06T08:47:20.185Z,8.67
2019-03-06T08:49:59.346Z,9.37
2019-03-06T08:52:32.414Z,10.67
2019-03-06T08:55:08.629Z,9.07
2019-03-06T08:57:56.670Z,9.80
2019-03-06T09:00:33.106Z,7.90
2019-03-06T09:03:17.448Z,8.60
2019-03-06T09:05:47.560Z,9.07
2019-03-06T09:08:29.785Z,10.20
2019-03-06T09:11:03.171Z,9.63
2019-03-06T09:13:38.094Z,10.67
2019-03-06T09:16:14.223Z,9.43
2019-03-06T09:18:44.325Z,7.50
2019-03-06T09:21:17.161Z,10.53
2019-03-06T09:23:50.199Z,8.13
2019-03-06T09:26:38.667Z,9.13
2019-03-06T09:29:24.773Z,7.77
2019-03-06T09:31:54.885Z,8.40
2019-03-06T09:34:25.002Z,7.70
2019-03-06T09:37:10.207Z,8.90
2019-03-06T09:39:52.585Z,7.43
2019-03-06T09:42:31.750Z,10.93
2019-03-06T09:45:01.866Z,7.47
2019-03-06T09:47:37.952Z,8.37
2019-03-06T09:50:27.437Z,7.67
2019-03-06T09:53:09.224Z,7.93
2019-03-06T09:55:42.586Z,5.83
2019-03-06T09:58:12.758Z,6.57
2019-03-06T10:00:45.362Z,6.40
2019-03-06T10:03:31.813Z,7.57
2019-03-06T10:06:04.884Z,7.00
2019-03-06T10:08:35.006Z,6.17
2019-03-06T10:11:05.192Z,6.20
2019-03-06T10:13:52.217Z,6.03
2019-03-06T10:16:25.144Z,6.40
2019-03-06T10:18:55.248Z,7.13
2019-03-06T10:21:25.654Z,5.37
2019-03-06T10:23:53.939Z,6.30
2019-03-06T10:26:22.664Z,6.57
2019-03-06T10:28:51.136Z,5.67
2019-03-06T10:31:19.933Z,6.03
2019-03-06T10:33:48.386Z,5.20
2019-03-06T10:36:16.862Z,4.87
2019-03-06T10:38:45.346Z,4.90
2019-03-06T10:41:13.990Z,6.80
2019-03-06T10:43:48.877Z,5.47
2019-03-06T10:46:12.659Z,5.28
2019-03-06T10:48:41.154Z,5.30
2019-03-06T10:51:09.899Z,5.75
2019-03-06T10:56:08.720Z,4.40
2019-03-06T10:58:37.217Z,7.07
2019-03-06T11:01:06.318Z,6.60
2019-03-06T11:03:36.519Z,5.67
2019-03-06T11:06:05.886Z,5.43
2019-03-06T11:08:34.446Z,4.93
2019-03-06T11:11:02.978Z,5.20
2019-03-06T11:13:31.535Z,8.27
2019-03-06T11:15:59.996Z,7.00
2019-03-06T11:18:28.551Z,6.33
2019-03-06T11:20:57.531Z,5.73
2019-03-06T11:23:26.026Z,7.03
2019-03-06T11:25:54.558Z,8.33
2019-03-06T11:28:23.042Z,5.60
2019-03-06T11:30:59.372Z,5.33
2019-03-06T11:33:27.994Z,6.53
2019-03-06T11:35:58.878Z,6.93
2019-03-06T11:38:28.092Z,5.43
2019-03-06T11:40:57.300Z,4.90
2019-03-06T11:43:25.849Z,4.13
2019-03-06T11:45:54.391Z,7.63
2019-03-06T11:48:22.875Z,5.63
2019-03-06T11:50:51.397Z,6.37
2019-03-06T11:53:20.027Z,5.87
2019-03-06T11:55:48.629Z,6.23
2019-03-06T11:58:18.724Z,7.50
2019-03-06T12:00:47.599Z,6.10
2019-03-06T12:03:18.928Z,8.40
2019-03-06T12:05:47.904Z,5.70
2019-03-06T12:08:18.434Z,5.50
2019-03-06T12:10:47.229Z,7.83
2019-03-06T12:13:17.369Z,5.50
2019-03-06T12:15:48.089Z,7.53
2019-03-06T12:18:16.708Z,7.67
2019-03-06T12:20:45.356Z,5.40
2019-03-06T12:23:13.910Z,5.67
2019-03-06T12:25:42.719Z,6.43
2019-03-06T12:28:13.122Z,7.07
2019-03-06T12:30:42.011Z,6.33
2019-03-06T12:33:12.165Z,5.10
2019-03-06T12:35:40.618Z,7.93
2019-03-06T12:38:10.833Z,4.43
2019-03-06T12:40:39.458Z,5.47
2019-03-06T12:43:07.941Z,7.30
2019-03-06T12:45:36.425Z,5.50
2019-03-06T12:48:18.150Z,4.97
2019-03-06T12:50:53.927Z,5.17
2019-03-06T12:53:16.811Z,4.30
2019-03-06T12:55:45.291Z,5.00
2019-03-06T12:58:13.749Z,3.67
2019-03-06T13:00:42.502Z,4.90
2019-03-06T13:03:10.985Z,3.47
2019-03-06T13:05:39.467Z,4.37
2019-03-06T13:08:07.931Z,3.40
2019-03-06T13:10:36.422Z,3.27
2019-03-06T13:13:04.978Z,3.53
2019-03-06T13:15:33.940Z,4.93
2019-03-06T13:18:02.409Z,6.03
2019-03-06T13:20:30.955Z,5.27
2019-03-06T13:22:59.412Z,3.87
2019-03-06T13:25:27.905Z,3.87
2019-03-06T13:27:57.593Z,6.70
2019-03-06T13:30:27.999Z,5.07
2019-03-06T13:33:00.809Z,3.77
2019-03-06T13:35:30.937Z,5.30
2019-03-06T13:37:59.465Z,6.07
2019-03-06T13:40:28.018Z,4.27
2019-03-06T13:42:57.504Z,3.63
2019-03-06T13:45:26.065Z,4.80
2019-03-06T13:47:54.536Z,4.37
2019-03-06T13:50:24.527Z,5.10
2019-03-06T13:52:53.351Z,4.60
2019-03-06T13:55:21.905Z,3.97
2019-03-06T13:57:50.510Z,4.23
2019-03-06T14:00:25.573Z,5.67
2019-03-06T14:02:54.166Z,4.77
2019-03-06T14:05:23.696Z,4.47
2019-03-06T14:07:56.424Z,4.07
2019-03-06T14:10:25.960Z,5.63
2019-03-06T14:12:54.667Z,4.60
2019-03-06T14:15:24.357Z,4.17
2019-03-06T14:17:52.980Z,6.70
2019-03-06T14:20:23.270Z,5.83
2019-03-06T14:22:51.988Z,3.87
2019-03-06T14:25:21.312Z,6.33
2019-03-06T14:27:49.902Z,4.90
2019-03-06T14:30:29.521Z,4.60
2019-03-06T14:32:57.960Z,4.40
2019-03-06T14:35:26.983Z,5.17
2019-03-06T14:37:55.505Z,6.97
2019-03-06T14:40:34.574Z,8.17
2019-03-06T14:43:05.424Z,4.43
2019-03-06T14:45:34.055Z,4.83
2019-03-06T14:48:02.844Z,4.23
2019-03-06T14:50:31.378Z,6.33
2019-03-06T14:53:00.232Z,5.97
2019-03-06T14:55:28.700Z,4.87
2019-03-06T14:57:57.206Z,6.03
2019-03-06T15:00:25.663Z,4.60
2019-03-06T15:02:54.143Z,4.37
2019-03-06T15:05:22.873Z,5.40
2019-03-06T15:07:54.618Z,6.47
2019-03-06T15:10:23.143Z,6.30
2019-03-06T15:12:51.621Z,5.53
2019-03-06T15:15:20.750Z,6.50
2019-03-06T15:17:49.671Z,4.97
2019-03-06T15:20:28.532Z,6.60
2019-03-06T15:22:58.142Z,6.50
2019-03-06T15:25:30.563Z,6.80
2019-03-06T15:27:59.172Z,5.97
2019-03-06T15:30:27.690Z,5.50
2019-03-06T15:32:56.166Z,5.77
2019-03-06T15:35:24.684Z,5.70
2019-03-06T15:37:53.252Z,5.77
2019-03-06T15:40:28.202Z,6.60
2019-03-06T15:42:56.785Z,5.43
2019-03-06T15:45:27.009Z,4.63
2019-03-06T15:47:55.956Z,6.17
2019-03-06T15:50:24.587Z,4.37
2019-03-06T15:52:53.137Z,4.73
2019-03-06T15:55:26.072Z,7.67
2019-03-06T15:57:54.701Z,5.33
2019-03-06T16:00:46.384Z,6.43
2019-03-06T16:03:11.879Z,4.80
2019-03-06T16:05:40.397Z,5.40
2019-03-06T16:08:10.930Z,10.20
2019-03-06T16:10:40.319Z,5.93
2019-03-06T16:13:09.180Z,7.17
2019-03-06T16:15:37.631Z,7.30
2019-03-06T16:18:08.054Z,6.33
2019-03-06T16:20:36.601Z,10.23
2019-03-06T16:23:05.428Z,6.73
2019-03-06T16:25:37.305Z,7.60
2019-03-06T16:28:04.454Z,7.23
2019-03-06T16:30:32.986Z,7.33
2019-03-06T16:33:01.645Z,8.03
2019-03-06T16:35:30.190Z,9.63
2019-03-06T16:37:59.257Z,8.50
2019-03-06T16:40:28.007Z,8.90
2019-03-06T16:42:56.617Z,9.77
2019-03-06T16:45:29.995Z,10.27
2019-03-06T16:47:59.768Z,11.13
2019-03-06T16:50:28.272Z,12.07
2019-03-06T16:52:56.899Z,12.80
2019-03-06T16:55:26.402Z,12.77
2019-03-06T16:57:55.812Z,11.43
2019-03-06T17:00:35.732Z,12.73
2019-03-06T17:03:09.463Z,12.03
2019-03-06T17:05:38.537Z,11.73
2019-03-06T17:08:07.482Z,13.30
2019-03-06T17:10:38.259Z,10.27
2019-03-06T17:13:07.212Z,10.70
2019-03-06T17:15:35.836Z,9.23
2019-03-06T17:18:04.552Z,10.93
2019-03-06T17:20:34.856Z,9.90
2019-03-06T17:23:03.668Z,9.53
2019-03-06T17:25:33.172Z,7.67
2019-03-06T17:28:01.654Z,8.20
2019-03-06T17:30:32.462Z,9.10
2019-03-06T17:33:06.574Z,8.20
2019-03-06T17:35:35.874Z,9.97
2019-03-06T17:38:05.812Z,8.93
2019-03-06T17:40:34.278Z,10.27
2019-03-06T17:43:03.118Z,8.93
2019-03-06T17:45:31.579Z,9.77
2019-03-06T17:48:00.460Z,10.53
2019-03-06T17:50:29.082Z,9.20
2019-03-06T17:52:57.689Z,7.90
2019-03-06T17:55:26.246Z,8.40
2019-03-06T17:57:54.775Z,8.60
2019-03-06T18:00:29.814Z,11.03
2019-03-06T18:02:59.366Z,9.30
2019-03-06T18:05:28.027Z,9.20
2019-03-06T18:07:56.562Z,8.37
2019-03-06T18:10:25.089Z,9.23
2019-03-06T18:12:53.644Z,8.90
2019-03-06T18:15:22.187Z,8.87
2019-03-06T18:17:50.648Z,10.67
2019-03-06T18:20:19.410Z,8.53
2019-03-06T18:22:47.936Z,9.90
2019-03-06T18:25:21.555Z,8.73
2019-03-06T18:27:50.024Z,8.33
2019-03-06T18:30:19.747Z,9.07
2019-03-06T18:32:48.848Z,9.30
2019-03-06T18:35:18.462Z,8.77
2019-03-06T18:37:46.919Z,8.90
2019-03-06T18:40:25.743Z,8.87
2019-03-06T18:42:55.091Z,7.70
2019-03-06T18:45:23.726Z,7.17
2019-03-06T18:47:52.255Z,7.43
2019-03-06T18:50:25.281Z,11.50
2019-03-06T18:52:53.746Z,9.93
2019-03-06T18:55:22.383Z,9.13
2019-03-06T18:57:50.924Z,7.70
2019-03-06T19:00:30.638Z,8.50
2019-03-06T19:02:59.187Z,9.37
2019-03-06T19:05:27.681Z,7.63
2019-03-06T19:07:56.167Z,7.20
2019-03-06T19:10:25.592Z,7.97
2019-03-06T19:12:54.612Z,8.67
2019-03-06T19:15:29.951Z,8.57
2019-03-06T19:17:58.409Z,7.77
2019-03-06T19:20:27.084Z,9.43
2019-03-06T19:22:56.040Z,8.23
2019-03-06T19:25:24.826Z,8.47
2019-03-06T19:27:53.297Z,9.40
2019-03-06T19:30:23.154Z,6.77
2019-03-06T19:32:51.856Z,6.67
2019-03-06T19:35:22.359Z,8.87
2019-03-06T19:37:51.108Z,6.13
2019-03-06T19:40:20.270Z,8.63
2019-03-06T19:42:48.735Z,8.00
2019-03-06T19:45:24.119Z,6.60
2019-03-06T19:47:52.818Z,7.33
2019-03-06T19:50:22.821Z,9.43
2019-03-06T19:52:51.434Z,10.77
2019-03-06T19:55:20.632Z,7.07
2019-03-06T19:58:06.206Z,5.73
2019-03-06T20:00:35.453Z,6.80
2019-03-06T20:03:06.127Z,6.97
2019-03-06T20:05:36.987Z,6.83
2019-03-06T20:08:10.504Z,8.50
2019-03-06T20:10:39.539Z,6.40
2019-03-06T20:13:08.760Z,6.93
2019-03-06T20:15:38.308Z,8.67
2019-03-06T20:18:07.181Z,6.40
2019-03-06T20:20:35.842Z,6.27
2019-03-06T20:23:04.485Z,6.20
2019-03-06T20:25:34.499Z,6.57
2019-03-06T20:28:04.600Z,6.07
2019-03-06T20:30:33.173Z,7.07
2019-03-06T20:33:01.657Z,7.43
2019-03-06T20:35:30.203Z,8.27
2019-03-06T20:37:59.040Z,6.50
2019-03-06T20:40:27.580Z,9.63
2019-03-06T20:42:56.104Z,7.70
2019-03-06T20:45:24.611Z,5.83
2019-03-06T20:47:53.068Z,7.43
2019-03-06T20:50:22.044Z,7.17
2019-03-06T20:52:50.700Z,6.67
2019-03-06T20:55:20.867Z,6.13
2019-03-06T20:57:49.337Z,6.63
2019-03-06T21:00:26.496Z,6.60
2019-03-06T21:02:55.020Z,6.67
2019-03-06T21:05:23.690Z,6.97
2019-03-06T21:07:52.250Z,8.03
2019-03-06T21:10:21.250Z,6.40
2019-03-06T21:12:49.804Z,5.43
2019-03-06T21:15:19.642Z,6.50
2019-03-06T21:17:48.157Z,6.60
2019-03-06T21:20:22.671Z,6.43
2019-03-06T21:22:51.257Z,7.00
2019-03-06T21:25:20.677Z,6.57
2019-03-06T21:27:49.471Z,6.42
2019-03-06T21:30:22.654Z,8.37
2019-03-06T21:32:51.139Z,6.23
2019-03-06T21:35:19.598Z,7.57
2019-03-06T21:37:48.103Z,6.33
2019-03-06T21:40:17.608Z,7.87
2019-03-06T21:42:46.379Z,7.30
2019-03-06T21:45:15.684Z,5.63
2019-03-06T21:47:44.173Z,6.08
2019-03-06T21:50:14.929Z,7.80
2019-03-06T21:52:43.434Z,5.67
2019-03-06T21:55:14.127Z,7.00
2019-03-06T21:57:42.695Z,6.60
2019-03-06T22:00:19.631Z,4.90
2019-03-06T22:02:48.185Z,6.57
2019-03-06T22:05:16.816Z,8.30
2019-03-06T22:07:45.851Z,7.67
2019-03-06T22:10:16.426Z,5.87
2019-03-06T22:12:45.214Z,6.20
2019-03-06T22:15:21.136Z,7.00
2019-03-06T22:17:49.720Z,10.20
2019-03-06T22:20:18.452Z,7.07
2019-03-06T22:22:47.038Z,6.47
2019-03-06T22:25:16.839Z,8.93
2019-03-06T22:27:45.403Z,6.37
2019-03-06T22:30:16.679Z,7.20
2019-03-06T22:32:45.194Z,8.37
2019-03-06T22:35:14.312Z,7.00
2019-03-06T22:37:42.800Z,7.37
2019-03-06T22:40:17.012Z,8.33
2019-03-06T22:42:45.499Z,6.40
2019-03-06T22:45:20.781Z,6.63
2019-03-06T22:47:49.291Z,7.20
2019-03-06T22:50:18.891Z,10.10
2019-03-06T22:52:47.505Z,7.93
2019-03-06T22:55:20.767Z,6.43
2019-03-06T22:57:49.389Z,6.27
2019-03-06T23:00:29.526Z,7.23
2019-03-06T23:02:58.465Z,6.30
2019-03-06T23:05:29.154Z,6.97
2019-03-06T23:07:57.649Z,8.53
2019-03-06T23:10:26.283Z,7.87
2019-03-06T23:12:54.782Z,7.10
2019-03-06T23:15:23.325Z,8.30
2019-03-06T23:17:51.827Z,6.23
2019-03-06T23:20:20.290Z,5.43
2019-03-06T23:22:48.762Z,6.20
2019-03-06T23:25:18.197Z,9.27
2019-03-06T23:27:47.063Z,5.63
2019-03-06T23:30:17.165Z,6.43
2019-03-06T23:32:46.050Z,6.50
2019-03-06T23:35:14.533Z,6.53
2019-03-06T23:37:43.013Z,7.33
2019-03-06T23:40:12.266Z,8.50
2019-03-06T23:42:40.731Z,6.20
2019-03-06T23:45:11.634Z,7.70
2019-03-06T23:47:40.408Z,7.03
2019-03-06T23:50:10.543Z,6.40
2019-03-06T23:52:56.892Z,7.10
2019-03-06T23:55:26.244Z,6.67
2019-03-06T23:57:55.107Z,7.17
